createdAt,value
2018-03-18T00:00:57.609Z,7.80
2018-03-18T00:01:57.651Z,7.20
2018-03-18T00:02:57.603Z,7.90
2018-03-18T00:03:57.569Z,7.90
2018-03-18T00:04:57.567Z,6.40
2018-03-18T00:05:57.568Z,7.10
2018-03-18T00:06:57.569Z,7.20
2018-03-18T00:07:57.555Z,7.40
2018-03-18T00:08:57.563Z,8.00
2018-03-18T00:09:57.581Z,8.50
2018-03-18T00:10:57.549Z,7.00
2018-03-18T00:11:57.561Z,7.50
2018-03-18T00:12:57.606Z,7.00
2018-03-18T00:13:57.629Z,6.90
2018-03-18T00:14:57.508Z,7.40
2018-03-18T00:15:57.647Z,8.10
2018-03-18T00:16:57.499Z,7.20
2018-03-18T00:17:57.557Z,7.30
2018-03-18T00:18:57.517Z,7.00
2018-03-18T00:19:57.533Z,8.80
2018-03-18T00:20:57.500Z,7.20
2018-03-18T00:21:57.476Z,6.80
2018-03-18T00:22:57.497Z,7.90
2018-03-18T00:23:57.504Z,8.20
2018-03-18T00:24:57.603Z,7.50
2018-03-18T00:25:57.510Z,7.20
2018-03-18T00:26:57.527Z,7.40
2018-03-18T00:27:57.516Z,7.50
2018-03-18T00:28:57.574Z,7.80
2018-03-18T00:29:57.492Z,8.70
2018-03-18T00:30:57.527Z,7.80
2018-03-18T00:31:57.528Z,6.90
2018-03-18T00:32:57.469Z,6.60
2018-03-18T00:33:57.449Z,7.90
2018-03-18T00:34:57.474Z,8.30
2018-03-18T00:35:57.459Z,7.90
2018-03-18T00:36:57.485Z,7.80
2018-03-18T00:37:57.442Z,7.60
2018-03-18T00:38:57.546Z,7.70
2018-03-18T00:39:57.385Z,8.20
2018-03-18T00:40:57.440Z,7.00
2018-03-18T00:41:57.401Z,7.00
2018-03-18T00:42:57.426Z,6.70
2018-03-18T00:43:57.412Z,6.20
2018-03-18T00:44:57.439Z,7.10
2018-03-18T00:45:57.423Z,7.30
2018-03-18T00:46:57.376Z,8.40
2018-03-18T00:47:57.354Z,8.40
2018-03-18T00:48:57.347Z,8.10
2018-03-18T00:49:57.364Z,8.50
2018-03-18T00:50:57.376Z,7.90
2018-03-18T00:51:57.389Z,7.50
2018-03-18T00:52:57.357Z,7.80
2018-03-18T00:53:57.374Z,6.70
2018-03-18T00:54:57.345Z,7.10
2018-03-18T00:55:57.357Z,7.20
2018-03-18T00:56:57.298Z,7.50
2018-03-18T00:57:57.348Z,7.20
2018-03-18T00:58:57.300Z,8.90
2018-03-18T00:59:57.312Z,7.20
2018-03-18T01:00:57.292Z,8.20
2018-03-18T01:01:57.408Z,6.70
2018-03-18T01:02:57.358Z,7.70
2018-03-18T01:03:57.279Z,7.30
2018-03-18T01:04:57.329Z,8.60
2018-03-18T01:05:58.218Z,7.50
2018-03-18T01:06:57.727Z,8.00
2018-03-18T01:07:57.363Z,8.00
2018-03-18T01:08:57.429Z,7.10
2018-03-18T01:09:57.271Z,8.40
2018-03-18T01:10:57.295Z,8.20
2018-03-18T01:11:57.274Z,8.50
2018-03-18T01:12:57.289Z,8.30
2018-03-18T01:13:57.287Z,7.00
2018-03-18T01:14:57.290Z,7.10
2018-03-18T01:15:57.287Z,7.50
2018-03-18T01:16:57.218Z,7.10
2018-03-18T01:17:57.255Z,8.30
2018-03-18T01:18:57.197Z,8.10
2018-03-18T01:19:57.207Z,8.10
2018-03-18T01:20:57.233Z,8.60
2018-03-18T01:21:57.213Z,7.60
2018-03-18T01:22:57.197Z,8.30
2018-03-18T01:23:57.261Z,7.60
2018-03-18T01:24:57.249Z,8.30
2018-03-18T01:25:57.381Z,8.00
2018-03-18T01:26:57.209Z,7.30
2018-03-18T01:27:57.166Z,7.00
2018-03-18T01:28:57.192Z,7.90
2018-03-18T01:29:57.172Z,8.00
2018-03-18T01:30:57.153Z,7.40
2018-03-18T01:31:57.143Z,7.70
2018-03-18T01:32:57.206Z,8.40
2018-03-18T01:33:57.164Z,8.30
2018-03-18T01:34:57.195Z,7.60
2018-03-18T01:35:57.141Z,7.70
2018-03-18T01:36:57.144Z,7.40
2018-03-18T01:37:57.140Z,8.80
2018-03-18T01:38:57.104Z,9.00
2018-03-18T01:39:57.175Z,8.00
2018-03-18T01:40:57.114Z,8.60
2018-03-18T01:41:57.159Z,6.70
2018-03-18T01:42:57.105Z,6.90
2018-03-18T01:43:57.069Z,7.40
2018-03-18T01:44:57.185Z,6.70
2018-03-18T01:45:57.075Z,7.60
2018-03-18T01:46:57.049Z,6.50
2018-03-18T01:47:57.059Z,8.10
2018-03-18T01:48:57.064Z,8.30
2018-03-18T01:49:57.120Z,8.00
2018-03-18T01:50:57.090Z,7.20
2018-03-18T01:51:57.070Z,8.20
2018-03-18T01:52:57.045Z,8.80
2018-03-18T01:53:57.136Z,9.10
2018-03-18T01:54:57.020Z,7.60
2018-03-18T01:55:57.049Z,8.30
2018-03-18T01:56:57.010Z,7.40
2018-03-18T01:57:57.088Z,8.10
2018-03-18T01:58:57.010Z,8.70
2018-03-18T01:59:56.998Z,8.40
2018-03-18T02:00:56.992Z,9.40
2018-03-18T02:01:57.008Z,9.40
2018-03-18T02:02:56.956Z,9.80
2018-03-18T02:03:56.975Z,8.90
2018-03-18T02:04:57.007Z,7.50
2018-03-18T02:05:56.988Z,7.90
2018-03-18T02:06:57.040Z,8.20
2018-03-18T02:07:56.960Z,8.20
2018-03-18T02:08:56.944Z,7.10
2018-03-18T02:09:56.944Z,7.90
2018-03-18T02:10:56.923Z,7.60
2018-03-18T02:11:56.944Z,8.50
2018-03-18T02:12:56.914Z,8.20
2018-03-18T02:13:56.945Z,8.80
2018-03-18T02:14:56.908Z,8.80
2018-03-18T02:15:56.929Z,8.10
2018-03-18T02:16:57.724Z,8.90
2018-03-18T02:17:56.931Z,7.80
2018-03-18T02:18:56.936Z,7.50
2018-03-18T02:19:56.932Z,7.50
2018-03-18T02:20:56.870Z,8.60
2018-03-18T02:21:56.867Z,8.90
2018-03-18T02:22:56.923Z,8.20
2018-03-18T02:23:56.914Z,7.00
2018-03-18T02:24:56.967Z,7.30
2018-03-18T02:25:56.908Z,8.30
2018-03-18T02:26:56.908Z,8.20
2018-03-18T02:27:56.874Z,6.90
2018-03-18T02:28:56.886Z,8.10
2018-03-18T02:29:56.850Z,7.70
2018-03-18T02:30:56.849Z,9.00
2018-03-18T02:31:56.929Z,8.90
2018-03-18T02:32:56.955Z,8.30
2018-03-18T02:33:56.957Z,7.00
2018-03-18T02:34:56.785Z,8.30
2018-03-18T02:35:56.823Z,7.70
2018-03-18T02:36:56.792Z,8.00
2018-03-18T02:37:56.840Z,8.80
2018-03-18T02:38:56.844Z,7.80
2018-03-18T02:39:56.810Z,8.40
2018-03-18T02:40:56.780Z,8.20
2018-03-18T02:41:56.847Z,8.00
2018-03-18T02:42:56.780Z,8.10
2018-03-18T02:43:56.787Z,7.60
2018-03-18T02:44:56.755Z,8.10
2018-03-18T02:45:56.774Z,8.00
2018-03-18T02:46:56.726Z,7.70
2018-03-18T02:47:56.761Z,7.80
2018-03-18T02:48:56.734Z,7.80
2018-03-18T02:49:56.896Z,7.80
2018-03-18T02:50:56.760Z,7.40
2018-03-18T02:51:56.713Z,7.40
2018-03-18T02:52:57.226Z,8.80
2018-03-18T02:53:56.977Z,7.10
2018-03-18T02:54:56.933Z,8.40
2018-03-18T02:55:57.223Z,8.40
2018-03-18T02:56:56.715Z,8.70
2018-03-18T02:57:56.823Z,7.30
2018-03-18T02:58:56.791Z,8.30
2018-03-18T02:59:56.718Z,7.40
2018-03-18T03:00:56.784Z,7.60
2018-03-18T03:01:56.927Z,8.00
2018-03-18T03:02:56.753Z,7.70
2018-03-18T03:03:56.810Z,8.50
2018-03-18T03:04:56.868Z,6.20
2018-03-18T03:05:56.647Z,7.40
2018-03-18T03:06:56.796Z,8.20
2018-03-18T03:07:56.789Z,8.80
2018-03-18T03:08:56.631Z,8.30
2018-03-18T03:09:56.650Z,7.90
2018-03-18T03:10:56.697Z,8.70
2018-03-18T03:11:56.644Z,7.70
2018-03-18T03:12:56.688Z,8.10
2018-03-18T03:13:56.733Z,7.60
2018-03-18T03:14:56.678Z,8.90
2018-03-18T03:15:56.658Z,8.30
2018-03-18T03:16:56.662Z,7.60
2018-03-18T03:17:56.580Z,8.30
2018-03-18T03:18:56.614Z,8.40
2018-03-18T03:19:56.574Z,7.40
2018-03-18T03:20:56.584Z,7.00
2018-03-18T03:21:56.590Z,8.90
2018-03-18T03:22:56.592Z,9.20
2018-03-18T03:23:56.544Z,8.00
2018-03-18T03:24:56.536Z,8.10
2018-03-18T03:25:56.523Z,7.90
2018-03-18T03:26:56.592Z,8.20
2018-03-18T03:27:56.574Z,7.50
2018-03-18T03:28:56.603Z,7.40
2018-03-18T03:29:56.606Z,8.30
2018-03-18T03:30:56.511Z,7.30
2018-03-18T03:31:56.547Z,8.00
2018-03-18T03:32:56.572Z,9.00
2018-03-18T03:33:56.497Z,8.10
2018-03-18T03:34:56.541Z,7.10
2018-03-18T03:35:56.551Z,8.30
2018-03-18T03:36:56.518Z,8.30
2018-03-18T03:37:56.520Z,7.20
2018-03-18T03:38:56.507Z,8.80
2018-03-18T03:39:56.573Z,9.60
2018-03-18T03:40:56.528Z,9.20
2018-03-18T03:41:56.519Z,8.20
2018-03-18T03:42:56.567Z,7.80
2018-03-18T03:43:56.545Z,8.40
2018-03-18T03:44:56.526Z,8.40
2018-03-18T03:45:56.474Z,8.00
2018-03-18T03:46:56.522Z,8.40
2018-03-18T03:47:56.464Z,7.00
2018-03-18T03:48:56.495Z,8.30
2018-03-18T03:49:56.538Z,8.40
2018-03-18T03:50:56.430Z,7.50
2018-03-18T03:51:56.430Z,6.90
2018-03-18T03:52:56.416Z,7.80
2018-03-18T03:53:56.498Z,8.50
2018-03-18T03:54:56.436Z,8.80
2018-03-18T03:55:56.401Z,7.90
2018-03-18T03:56:56.403Z,8.20
2018-03-18T03:57:56.403Z,7.60
2018-03-18T03:58:56.426Z,8.10
2018-03-18T03:59:56.370Z,8.00
2018-03-18T04:00:56.347Z,8.20
2018-03-18T04:01:56.366Z,7.50
2018-03-18T04:02:56.349Z,6.90
2018-03-18T04:03:56.377Z,8.80
2018-03-18T04:04:56.401Z,8.40
2018-03-18T04:05:56.317Z,9.00
2018-03-18T04:06:56.420Z,7.70
2018-03-18T04:07:56.349Z,8.30
2018-03-18T04:08:56.298Z,8.30
2018-03-18T04:09:56.316Z,8.00
2018-03-18T04:10:56.283Z,7.70
2018-03-18T04:11:56.346Z,8.30
2018-03-18T04:12:56.299Z,7.40
2018-03-18T04:13:56.310Z,8.80
2018-03-18T04:14:56.257Z,9.70
2018-03-18T04:15:56.318Z,9.40
2018-03-18T04:16:56.296Z,8.20
2018-03-18T04:17:56.259Z,8.80
2018-03-18T04:18:56.251Z,9.00
2018-03-18T04:19:56.384Z,7.20
2018-03-18T04:20:56.273Z,8.10
2018-03-18T04:21:56.279Z,8.70
2018-03-18T04:22:56.223Z,8.20
2018-03-18T04:23:56.254Z,7.40
2018-03-18T04:24:56.235Z,9.30
2018-03-18T04:25:56.306Z,8.70
2018-03-18T04:26:56.224Z,9.00
2018-03-18T04:27:56.255Z,7.70
2018-03-18T04:28:56.203Z,7.80
2018-03-18T04:29:56.193Z,7.00
2018-03-18T04:30:56.180Z,9.00
2018-03-18T04:31:56.243Z,8.10
2018-03-18T04:32:56.270Z,8.20
2018-03-18T04:33:56.193Z,8.00
2018-03-18T04:34:56.187Z,8.80
2018-03-18T04:35:56.191Z,8.80
2018-03-18T04:36:56.162Z,6.90
2018-03-18T04:37:56.218Z,8.50
2018-03-18T04:38:56.166Z,8.60
2018-03-18T04:39:56.139Z,8.40
2018-03-18T04:40:56.124Z,8.60
2018-03-18T04:41:56.143Z,8.70
2018-03-18T04:42:56.241Z,9.30
2018-03-18T04:43:56.154Z,8.60
2018-03-18T04:44:56.126Z,8.90
2018-03-18T04:45:56.156Z,8.40
2018-03-18T04:46:56.108Z,9.30
2018-03-18T04:47:56.150Z,8.80
2018-03-18T04:48:56.118Z,8.00
2018-03-18T04:49:56.106Z,8.20
2018-03-18T04:50:56.086Z,8.90
2018-03-18T04:51:56.164Z,8.30
2018-03-18T04:52:56.089Z,8.30
2018-03-18T04:53:56.078Z,9.00
2018-03-18T04:54:56.091Z,8.60
2018-03-18T04:55:56.082Z,8.80
2018-03-18T04:56:56.077Z,8.40
2018-03-18T04:57:56.032Z,8.20
2018-03-18T04:58:56.060Z,7.80
2018-03-18T04:59:56.040Z,9.10
2018-03-18T05:00:56.022Z,8.50
2018-03-18T05:01:56.032Z,8.40
2018-03-18T05:02:55.998Z,7.70
2018-03-18T05:03:56.017Z,8.60
2018-03-18T05:04:55.984Z,8.00
2018-03-18T05:05:56.006Z,8.90
2018-03-18T05:06:55.988Z,9.10
2018-03-18T05:07:56.041Z,9.00
2018-03-18T05:08:55.999Z,10.00
2018-03-18T05:09:56.003Z,8.40
2018-03-18T05:10:55.991Z,8.00
2018-03-18T05:11:56.025Z,8.30
2018-03-18T05:12:55.940Z,8.10
2018-03-18T05:13:55.968Z,8.80
2018-03-18T05:14:55.941Z,8.40
2018-03-18T05:15:55.981Z,8.60
2018-03-18T05:16:56.056Z,8.00
2018-03-18T05:17:55.958Z,9.40
2018-03-18T05:18:55.993Z,9.30
2018-03-18T05:19:55.969Z,8.80
2018-03-18T05:20:55.906Z,8.80
2018-03-18T05:21:55.929Z,7.20
2018-03-18T05:22:55.901Z,6.80
2018-03-18T05:23:55.927Z,7.60
2018-03-18T05:24:55.893Z,8.20
2018-03-18T05:25:55.875Z,9.50
2018-03-18T05:26:55.885Z,7.40
2018-03-18T05:27:55.895Z,9.10
2018-03-18T05:28:55.873Z,8.20
2018-03-18T05:29:55.901Z,9.70
2018-03-18T05:30:55.865Z,8.60
2018-03-18T05:31:55.882Z,7.70
2018-03-18T05:32:55.882Z,7.40
2018-03-18T05:33:55.859Z,7.50
2018-03-18T05:34:55.833Z,8.40
2018-03-18T05:35:55.865Z,8.10
2018-03-18T05:36:55.821Z,8.50
2018-03-18T05:37:55.832Z,9.00
2018-03-18T05:38:55.853Z,9.20
2018-03-18T05:39:55.806Z,8.70
2018-03-18T05:40:55.822Z,8.60
2018-03-18T05:41:55.784Z,9.20
2018-03-18T05:42:55.822Z,9.00
2018-03-18T05:43:55.774Z,10.30
2018-03-18T05:44:55.793Z,8.40
2018-03-18T05:45:55.779Z,9.10
2018-03-18T05:46:55.783Z,8.40
2018-03-18T05:47:55.764Z,9.30
2018-03-18T05:48:55.778Z,9.80
2018-03-18T05:49:55.747Z,8.90
2018-03-18T05:50:55.735Z,10.60
2018-03-18T05:51:55.727Z,8.10
2018-03-18T05:52:55.744Z,7.70
2018-03-18T05:53:55.763Z,8.30
2018-03-18T05:54:55.739Z,7.90
2018-03-18T05:55:55.746Z,8.10
2018-03-18T05:56:55.729Z,7.20
2018-03-18T05:57:55.752Z,9.00
2018-03-18T05:58:55.691Z,9.30
2018-03-18T05:59:55.696Z,7.90
2018-03-18T06:00:55.679Z,8.40
2018-03-18T06:01:55.758Z,9.70
2018-03-18T06:02:55.691Z,8.90
2018-03-18T06:03:56.225Z,8.50
2018-03-18T06:04:55.691Z,10.50
2018-03-18T06:05:55.668Z,9.80
2018-03-18T06:06:55.678Z,7.50
2018-03-18T06:07:55.657Z,8.60
2018-03-18T06:08:55.665Z,8.20
2018-03-18T06:09:55.704Z,6.70
2018-03-18T06:10:55.681Z,8.10
2018-03-18T06:11:55.698Z,7.90
2018-03-18T06:12:55.672Z,8.40
2018-03-18T06:13:55.605Z,10.00
2018-03-18T06:14:55.658Z,9.80
2018-03-18T06:15:55.622Z,9.80
2018-03-18T06:16:55.593Z,9.20
2018-03-18T06:17:55.601Z,8.20
2018-03-18T06:18:55.617Z,8.60
2018-03-18T06:19:55.610Z,9.60
2018-03-18T06:20:55.598Z,9.60
2018-03-18T06:21:55.610Z,9.70
2018-03-18T06:22:55.617Z,9.20
2018-03-18T06:23:55.630Z,8.50
2018-03-18T06:24:55.617Z,8.50
2018-03-18T06:25:55.559Z,8.20
2018-03-18T06:26:55.572Z,10.90
2018-03-18T06:27:55.559Z,8.80
2018-03-18T06:28:55.570Z,9.90
2018-03-18T06:29:55.580Z,9.30
2018-03-18T06:30:55.605Z,9.30
2018-03-18T06:31:55.578Z,8.40
2018-03-18T06:32:55.564Z,8.80
2018-03-18T06:33:55.582Z,10.20
2018-03-18T06:34:55.534Z,9.70
2018-03-18T06:35:56.234Z,10.60
2018-03-18T06:36:55.530Z,10.30
2018-03-18T06:37:55.604Z,9.40
2018-03-18T06:38:55.609Z,8.60
2018-03-18T06:39:55.525Z,8.30
2018-03-18T06:40:55.540Z,9.30
2018-03-18T06:41:55.482Z,9.60
2018-03-18T06:42:55.471Z,9.60
2018-03-18T06:43:55.489Z,9.50
2018-03-18T06:44:55.471Z,8.70
2018-03-18T06:45:55.502Z,9.90
2018-03-18T06:46:55.500Z,9.90
2018-03-18T06:47:55.474Z,9.20
2018-03-18T06:48:55.509Z,9.60
2018-03-18T06:49:55.473Z,10.50
2018-03-18T06:50:55.422Z,8.90
2018-03-18T06:51:55.482Z,9.50
2018-03-18T06:52:55.428Z,9.80
2018-03-18T06:53:55.433Z,8.50
2018-03-18T06:54:55.488Z,9.40
2018-03-18T06:55:55.404Z,8.70
2018-03-18T06:56:55.439Z,8.80
2018-03-18T06:57:55.378Z,9.50
2018-03-18T06:58:55.390Z,10.20
2018-03-18T06:59:55.371Z,7.80
2018-03-18T07:00:55.426Z,8.50
2018-03-18T07:01:55.378Z,9.70
2018-03-18T07:02:55.399Z,8.70
2018-03-18T07:03:55.395Z,8.50
2018-03-18T23:00:57.912Z,6.20
2018-03-18T23:01:57.878Z,5.50
2018-03-18T23:02:57.878Z,5.80
2018-03-18T23:03:57.876Z,5.50
2018-03-18T23:04:57.893Z,4.80
2018-03-18T23:05:57.866Z,5.80
2018-03-18T23:06:57.865Z,5.50
2018-03-18T23:07:57.870Z,5.20
2018-03-18T23:08:57.841Z,5.20
2018-03-18T23:09:57.934Z,5.70
2018-03-18T23:10:57.841Z,5.50
2018-03-18T23:11:57.838Z,5.50
2018-03-18T23:12:57.828Z,5.40
2018-03-18T23:13:57.828Z,5.30
2018-03-18T23:14:57.822Z,5.40
2018-03-18T23:15:57.810Z,5.60
2018-03-18T23:16:57.815Z,5.40
2018-03-18T23:17:57.806Z,5.80
2018-03-18T23:18:57.798Z,5.60
2018-03-18T23:19:57.794Z,4.90
2018-03-18T23:20:57.795Z,5.10
2018-03-18T23:21:57.784Z,5.30
2018-03-18T23:22:57.779Z,5.50
2018-03-18T23:23:57.774Z,5.20
2018-03-18T23:24:57.790Z,5.10
2018-03-18T23:25:57.763Z,5.30
2018-03-18T23:26:57.760Z,5.80
2018-03-18T23:27:57.758Z,5.50
2018-03-18T23:28:57.756Z,4.50
2018-03-18T23:29:57.768Z,5.30
2018-03-18T23:30:57.800Z,5.60
2018-03-18T23:31:57.743Z,5.30
2018-03-18T23:32:57.731Z,5.20
2018-03-18T23:33:57.725Z,6.20
2018-03-18T23:34:57.741Z,5.60
2018-03-18T23:35:57.712Z,5.40
2018-03-18T23:36:57.723Z,5.20
2018-03-18T23:37:57.710Z,5.80
2018-03-18T23:38:57.707Z,4.70
2018-03-18T23:39:57.700Z,5.80
2018-03-18T23:40:57.694Z,5.10
2018-03-18T23:41:57.695Z,5.20
2018-03-18T23:42:57.689Z,6.10
2018-03-18T23:43:57.686Z,5.10
2018-03-18T23:44:57.668Z,5.70
2018-03-18T23:45:57.664Z,5.30
2018-03-18T23:46:57.674Z,6.10
2018-03-18T23:47:57.654Z,5.90
2018-03-18T23:48:57.656Z,5.20
2018-03-18T23:49:57.651Z,5.40
2018-03-18T23:50:57.669Z,5.40
2018-03-18T23:51:57.637Z,5.20
2018-03-18T23:52:57.635Z,5.90
2018-03-18T23:53:57.620Z,5.90
2018-03-18T23:54:57.627Z,5.70
2018-03-18T23:55:57.623Z,6.20
2018-03-18T23:56:57.621Z,5.80
2018-03-18T23:57:57.610Z,5.30
2018-03-18T23:58:57.610Z,5.90
2018-03-18T23:59:57.598Z,5.90
